sensor_id;sensor_type;location;lat;lon;timestamp;temperature;humidity
5226;DHT22;2632;51.666;7.146;2023-07-29T00:00:50;19.40;99.90
5226;DHT22;2632;51.666;7.146;2023-07-29T00:03:17;19.30;99.90
5226;DHT22;2632;51.666;7.146;2023-07-29T00:05:43;19.30;99.90
5226;DHT22;2632;51.666;7.146;2023-07-29T00:08:10;19.30;99.90
5226;DHT22;2632;51.666;7.146;2023-07-29T00:10:37;19.30;99.90
5226;DHT22;2632;51.666;7.146;2023-07-29T00:13:05;19.20;99.90
5226;DHT22;2632;51.666;7.146;2023-07-29T00:15:32;19.20;99.90
5226;DHT22;2632;51.666;7.146;2023-07-29T00:17:58;19.20;99.90
5226;DHT22;2632;51.666;7.146;2023-07-29T00:20:25;19.30;99.90
5226;DHT22;2632;51.666;7.146;2023-07-29T00:22:52;19.30;99.90
5226;DHT22;2632;51.666;7.146;2023-07-29T00:25:21;19.20;99.90
5226;DHT22;2632;51.666;7.146;2023-07-29T00:27:48;19.20;99.90
5226;DHT22;2632;51.666;7.146;2023-07-29T00:30:15;19.20;99.90
5226;DHT22;2632;51.666;7.146;2023-07-29T00:32:41;19.10;99.90
5226;DHT22;2632;51.666;7.146;2023-07-29T00:35:11;19.10;99.90
5226;DHT22;2632;51.666;7.146;2023-07-29T00:37:37;19.20;99.90
5226;DHT22;2632;51.666;7.146;2023-07-29T00:40:15;19.10;99.90
5226;DHT22;2632;51.666;7.146;2023-07-29T00:42:43;19.00;99.90
5226;DHT22;2632;51.666;7.146;2023-07-29T00:45:10;19.00;99.90
5226;DHT22;2632;51.666;7.146;2023-07-29T00:47:37;19.00;99.90
5226;DHT22;2632;51.666;7.146;2023-07-29T00:50:06;19.00;99.90
5226;DHT22;2632;51.666;7.146;2023-07-29T00:52:33;19.00;99.90
5226;DHT22;2632;51.666;7.146;2023-07-29T00:55:00;18.90;99.90
5226;DHT22;2632;51.666;7.146;2023-07-29T00:57:29;18.90;99.90
5226;DHT22;2632;51.666;7.146;2023-07-29T00:59:56;18.80;99.90
5226;DHT22;2632;51.666;7.146;2023-07-29T01:02:23;18.80;99.90
5226;DHT22;2632;51.666;7.146;2023-07-29T01:04:54;18.80;99.90
5226;DHT22;2632;51.666;7.146;2023-07-29T01:07:30;18.70;99.90
5226;DHT22;2632;51.666;7.146;2023-07-29T01:10:13;18.70;99.90
5226;DHT22;2632;51.666;7.146;2023-07-29T01:15:53;18.70;99.90
5226;DHT22;2632;51.666;7.146;2023-07-29T01:18:28;18.70;99.90
5226;DHT22;2632;51.666;7.146;2023-07-29T01:20:59;18.60;99.90
5226;DHT22;2632;51.666;7.146;2023-07-29T01:23:33;18.60;99.90
5226;DHT22;2632;51.666;7.146;2023-07-29T01:26:00;18.60;99.90
5226;DHT22;2632;51.666;7.146;2023-07-29T01:28:27;18.60;99.90
5226;DHT22;2632;51.666;7.146;2023-07-29T01:31:03;18.70;99.90
5226;DHT22;2632;51.666;7.146;2023-07-29T01:33:38;18.70;99.90
5226;DHT22;2632;51.666;7.146;2023-07-29T01:36:15;18.60;99.90
5226;DHT22;2632;51.666;7.146;2023-07-29T01:38:44;18.60;99.90
5226;DHT22;2632;51.666;7.146;2023-07-29T01:41:12;18.60;99.90
5226;DHT22;2632;51.666;7.146;2023-07-29T01:43:39;18.70;99.90
5226;DHT22;2632;51.666;7.146;2023-07-29T01:46:15;18.70;99.90
5226;DHT22;2632;51.666;7.146;2023-07-29T01:48:42;18.70;99.90
5226;DHT22;2632;51.666;7.146;2023-07-29T01:51:12;18.60;99.90
5226;DHT22;2632;51.666;7.146;2023-07-29T01:53:39;18.60;99.90
5226;DHT22;2632;51.666;7.146;2023-07-29T01:56:05;18.60;99.90
5226;DHT22;2632;51.666;7.146;2023-07-29T01:58:32;18.60;99.90
5226;DHT22;2632;51.666;7.146;2023-07-29T02:00:59;18.70;99.90
5226;DHT22;2632;51.666;7.146;2023-07-29T02:03:26;18.60;99.90
5226;DHT22;2632;51.666;7.146;2023-07-29T02:05:52;18.60;99.90
5226;DHT22;2632;51.666;7.146;2023-07-29T02:08:19;18.70;99.90
5226;DHT22;2632;51.666;7.146;2023-07-29T02:10:48;18.70;99.90
5226;DHT22;2632;51.666;7.146;2023-07-29T02:13:15;18.70;99.90
5226;DHT22;2632;51.666;7.146;2023-07-29T02:15:42;18.70;99.90
5226;DHT22;2632;51.666;7.146;2023-07-29T02:18:09;18.70;99.90
5226;DHT22;2632;51.666;7.146;2023-07-29T02:20:35;18.70;99.90
5226;DHT22;2632;51.666;7.146;2023-07-29T02:23:02;18.80;99.90
5226;DHT22;2632;51.666;7.146;2023-07-29T02:25:35;18.80;99.90
5226;DHT22;2632;51.666;7.146;2023-07-29T02:28:02;18.80;99.90
5226;DHT22;2632;51.666;7.146;2023-07-29T02:30:30;18.80;99.90
5226;DHT22;2632;51.666;7.146;2023-07-29T02:32:56;18.80;99.90
5226;DHT22;2632;51.666;7.146;2023-07-29T02:35:23;18.90;99.90
5226;DHT22;2632;51.666;7.146;2023-07-29T02:37:50;18.90;99.90
5226;DHT22;2632;51.666;7.146;2023-07-29T02:40:16;18.90;99.90
5226;DHT22;2632;51.666;7.146;2023-07-29T02:42:43;19.00;99.90
5226;DHT22;2632;51.666;7.146;2023-07-29T02:45:10;18.90;99.90
5226;DHT22;2632;51.666;7.146;2023-07-29T02:47:37;19.00;99.90
5226;DHT22;2632;51.666;7.146;2023-07-29T02:50:05;19.00;99.90
5226;DHT22;2632;51.666;7.146;2023-07-29T02:52:31;19.00;99.90
5226;DHT22;2632;51.666;7.146;2023-07-29T02:54:58;19.00;99.90
5226;DHT22;2632;51.666;7.146;2023-07-29T02:57:25;19.00;99.90
5226;DHT22;2632;51.666;7.146;2023-07-29T02:59:51;19.10;99.90
5226;DHT22;2632;51.666;7.146;2023-07-29T03:02:18;19.10;99.90
5226;DHT22;2632;51.666;7.146;2023-07-29T03:04:45;19.00;99.90
5226;DHT22;2632;51.666;7.146;2023-07-29T03:07:11;19.10;99.90
5226;DHT22;2632;51.666;7.146;2023-07-29T03:09:38;19.00;99.90
5226;DHT22;2632;51.666;7.146;2023-07-29T03:12:05;19.10;99.90
5226;DHT22;2632;51.666;7.146;2023-07-29T03:14:32;19.10;99.90
5226;DHT22;2632;51.666;7.146;2023-07-29T03:17:02;19.00;99.90
5226;DHT22;2632;51.666;7.146;2023-07-29T03:19:29;19.10;99.90
5226;DHT22;2632;51.666;7.146;2023-07-29T03:21:56;19.10;99.90
5226;DHT22;2632;51.666;7.146;2023-07-29T03:24:23;19.20;99.90
5226;DHT22;2632;51.666;7.146;2023-07-29T03:26:50;19.10;99.90
5226;DHT22;2632;51.666;7.146;2023-07-29T03:29:16;19.10;99.90
5226;DHT22;2632;51.666;7.146;2023-07-29T03:31:43;19.00;99.90
5226;DHT22;2632;51.666;7.146;2023-07-29T03:34:10;19.10;99.90
5226;DHT22;2632;51.666;7.146;2023-07-29T03:36:38;19.20;99.90
5226;DHT22;2632;51.666;7.146;2023-07-29T03:39:04;19.20;99.90
5226;DHT22;2632;51.666;7.146;2023-07-29T03:41:31;19.20;99.90
5226;DHT22;2632;51.666;7.146;2023-07-29T03:43:58;19.20;99.90
5226;DHT22;2632;51.666;7.146;2023-07-29T03:46:25;19.20;99.90
5226;DHT22;2632;51.666;7.146;2023-07-29T03:48:51;19.20;99.90
5226;DHT22;2632;51.666;7.146;2023-07-29T03:51:18;19.20;99.90
5226;DHT22;2632;51.666;7.146;2023-07-29T03:53:45;19.20;99.90
5226;DHT22;2632;51.666;7.146;2023-07-29T03:56:12;19.20;99.90
5226;DHT22;2632;51.666;7.146;2023-07-29T03:58:38;19.30;99.90
5226;DHT22;2632;51.666;7.146;2023-07-29T04:01:05;19.20;99.90
5226;DHT22;2632;51.666;7.146;2023-07-29T04:03:33;19.20;99.90
5226;DHT22;2632;51.666;7.146;2023-07-29T04:06:01;19.20;99.90
5226;DHT22;2632;51.666;7.146;2023-07-29T04:08:27;19.30;99.90
5226;DHT22;2632;51.666;7.146;2023-07-29T04:10:54;19.30;99.90
5226;DHT22;2632;51.666;7.146;2023-07-29T04:13:21;19.30;99.90
5226;DHT22;2632;51.666;7.146;2023-07-29T04:15:48;19.20;99.90
5226;DHT22;2632;51.666;7.146;2023-07-29T04:18:14;19.20;99.90
5226;DHT22;2632;51.666;7.146;2023-07-29T04:20:41;19.30;99.90
5226;DHT22;2632;51.666;7.146;2023-07-29T04:23:08;19.30;99.90
5226;DHT22;2632;51.666;7.146;2023-07-29T04:25:34;19.30;99.90
5226;DHT22;2632;51.666;7.146;2023-07-29T04:28:01;19.30;99.90
5226;DHT22;2632;51.666;7.146;2023-07-29T04:30:29;19.30;99.90
5226;DHT22;2632;51.666;7.146;2023-07-29T04:32:56;19.20;99.90
5226;DHT22;2632;51.666;7.146;2023-07-29T04:35:23;19.30;99.90
5226;DHT22;2632;51.666;7.146;2023-07-29T04:37:49;19.30;99.90
5226;DHT22;2632;51.666;7.146;2023-07-29T04:40:16;19.40;99.90
5226;DHT22;2632;51.666;7.146;2023-07-29T04:42:43;19.40;99.90
5226;DHT22;2632;51.666;7.146;2023-07-29T04:45:09;19.40;99.90
5226;DHT22;2632;51.666;7.146;2023-07-29T04:47:36;19.30;99.90
5226;DHT22;2632;51.666;7.146;2023-07-29T04:50:03;19.20;99.90
5226;DHT22;2632;51.666;7.146;2023-07-29T04:52:30;19.30;99.90
5226;DHT22;2632;51.666;7.146;2023-07-29T04:54:57;19.30;99.90
5226;DHT22;2632;51.666;7.146;2023-07-29T04:57:23;19.30;99.90
5226;DHT22;2632;51.666;7.146;2023-07-29T04:59:50;19.40;99.90
5226;DHT22;2632;51.666;7.146;2023-07-29T05:02:17;19.30;99.90
5226;DHT22;2632;51.666;7.146;2023-07-29T05:04:43;19.40;99.90
5226;DHT22;2632;51.666;7.146;2023-07-29T05:07:10;19.30;99.90
5226;DHT22;2632;51.666;7.146;2023-07-29T05:09:37;19.30;99.90
5226;DHT22;2632;51.666;7.146;2023-07-29T05:12:04;19.20;99.90
5226;DHT22;2632;51.666;7.146;2023-07-29T05:14:30;19.10;99.90
5226;DHT22;2632;51.666;7.146;2023-07-29T05:16:57;19.10;99.90
5226;DHT22;2632;51.666;7.146;2023-07-29T05:19:24;19.10;99.90
5226;DHT22;2632;51.666;7.146;2023-07-29T05:21:50;19.20;99.90
5226;DHT22;2632;51.666;7.146;2023-07-29T05:24:17;19.10;99.90
5226;DHT22;2632;51.666;7.146;2023-07-29T05:26:44;19.20;99.90
5226;DHT22;2632;51.666;7.146;2023-07-29T05:29:10;19.10;99.90
5226;DHT22;2632;51.666;7.146;2023-07-29T05:31:37;19.10;99.90
5226;DHT22;2632;51.666;7.146;2023-07-29T05:34:04;19.20;99.90
5226;DHT22;2632;51.666;7.146;2023-07-29T05:36:30;19.30;99.90
5226;DHT22;2632;51.666;7.146;2023-07-29T05:38:57;19.30;99.90
5226;DHT22;2632;51.666;7.146;2023-07-29T05:41:24;19.30;99.90
5226;DHT22;2632;51.666;7.146;2023-07-29T05:43:52;19.40;99.90
5226;DHT22;2632;51.666;7.146;2023-07-29T05:46:19;19.40;99.90
5226;DHT22;2632;51.666;7.146;2023-07-29T05:48:45;19.40;99.90
5226;DHT22;2632;51.666;7.146;2023-07-29T05:51:12;19.40;99.90
5226;DHT22;2632;51.666;7.146;2023-07-29T05:53:39;19.20;99.90
5226;DHT22;2632;51.666;7.146;2023-07-29T05:56:05;19.30;99.90
5226;DHT22;2632;51.666;7.146;2023-07-29T05:58:32;19.30;99.90
5226;DHT22;2632;51.666;7.146;2023-07-29T06:00:59;19.20;99.90
5226;DHT22;2632;51.666;7.146;2023-07-29T06:03:25;19.20;99.90
5226;DHT22;2632;51.666;7.146;2023-07-29T06:05:53;19.30;99.90
5226;DHT22;2632;51.666;7.146;2023-07-29T06:08:21;19.20;99.90
5226;DHT22;2632;51.666;7.146;2023-07-29T06:10:47;19.30;99.90
5226;DHT22;2632;51.666;7.146;2023-07-29T06:13:14;19.20;99.90
5226;DHT22;2632;51.666;7.146;2023-07-29T06:15:41;19.20;99.90
5226;DHT22;2632;51.666;7.146;2023-07-29T06:18:07;19.30;99.90
5226;DHT22;2632;51.666;7.146;2023-07-29T06:20:34;19.20;99.90
5226;DHT22;2632;51.666;7.146;2023-07-29T06:23:01;19.30;99.90
5226;DHT22;2632;51.666;7.146;2023-07-29T06:25:28;19.30;99.90
5226;DHT22;2632;51.666;7.146;2023-07-29T06:27:55;19.30;99.90
5226;DHT22;2632;51.666;7.146;2023-07-29T06:30:21;19.40;99.90
5226;DHT22;2632;51.666;7.146;2023-07-29T06:32:48;19.30;99.90
5226;DHT22;2632;51.666;7.146;2023-07-29T06:35:15;19.40;99.90
5226;DHT22;2632;51.666;7.146;2023-07-29T06:37:42;19.40;99.90
5226;DHT22;2632;51.666;7.146;2023-07-29T06:40:08;19.50;99.90
5226;DHT22;2632;51.666;7.146;2023-07-29T06:42:35;19.60;99.90
5226;DHT22;2632;51.666;7.146;2023-07-29T06:45:05;19.60;99.90
5226;DHT22;2632;51.666;7.146;2023-07-29T06:47:31;19.70;99.90
5226;DHT22;2632;51.666;7.146;2023-07-29T06:49:58;19.70;99.90
5226;DHT22;2632;51.666;7.146;2023-07-29T06:52:25;19.70;99.90
5226;DHT22;2632;51.666;7.146;2023-07-29T06:54:51;19.70;99.90
5226;DHT22;2632;51.666;7.146;2023-07-29T06:57:18;19.80;99.90
5226;DHT22;2632;51.666;7.146;2023-07-29T06:59:45;19.70;99.90
5226;DHT22;2632;51.666;7.146;2023-07-29T07:02:11;19.60;99.90
5226;DHT22;2632;51.666;7.146;2023-07-29T07:04:38;19.70;99.90
5226;DHT22;2632;51.666;7.146;2023-07-29T07:07:05;19.70;99.90
5226;DHT22;2632;51.666;7.146;2023-07-29T07:09:31;19.70;99.90
5226;DHT22;2632;51.666;7.146;2023-07-29T07:11:58;19.70;99.90
5226;DHT22;2632;51.666;7.146;2023-07-29T07:14:25;19.70;99.90
5226;DHT22;2632;51.666;7.146;2023-07-29T07:16:52;19.80;99.90
5226;DHT22;2632;51.666;7.146;2023-07-29T07:19:18;19.70;99.90
5226;DHT22;2632;51.666;7.146;2023-07-29T07:21:45;19.80;99.90
5226;DHT22;2632;51.666;7.146;2023-07-29T07:24:12;19.90;99.90
5226;DHT22;2632;51.666;7.146;2023-07-29T07:26:38;19.90;99.90
5226;DHT22;2632;51.666;7.146;2023-07-29T07:29:05;19.80;99.90
5226;DHT22;2632;51.666;7.146;2023-07-29T07:31:35;19.90;99.90
5226;DHT22;2632;51.666;7.146;2023-07-29T07:34:02;20.10;99.90
5226;DHT22;2632;51.666;7.146;2023-07-29T07:36:29;20.20;99.90
5226;DHT22;2632;51.666;7.146;2023-07-29T07:38:56;20.50;99.90
5226;DHT22;2632;51.666;7.146;2023-07-29T07:41:23;20.80;99.90
5226;DHT22;2632;51.666;7.146;2023-07-29T07:43:50;20.70;99.90
5226;DHT22;2632;51.666;7.146;2023-07-29T07:46:17;20.60;99.90
5226;DHT22;2632;51.666;7.146;2023-07-29T07:48:44;20.70;99.90
5226;DHT22;2632;51.666;7.146;2023-07-29T07:51:13;20.90;99.90
5226;DHT22;2632;51.666;7.146;2023-07-29T07:53:40;20.90;99.90
5226;DHT22;2632;51.666;7.146;2023-07-29T07:56:07;21.10;99.90
5226;DHT22;2632;51.666;7.146;2023-07-29T07:58:34;21.00;99.90
5226;DHT22;2632;51.666;7.146;2023-07-29T08:01:04;21.20;99.90
5226;DHT22;2632;51.666;7.146;2023-07-29T08:03:31;21.00;99.90
5226;DHT22;2632;51.666;7.146;2023-07-29T08:05:58;21.10;99.90
5226;DHT22;2632;51.666;7.146;2023-07-29T08:08:26;21.30;99.90
5226;DHT22;2632;51.666;7.146;2023-07-29T08:10:54;21.30;99.90
5226;DHT22;2632;51.666;7.146;2023-07-29T08:13:22;21.40;99.90
5226;DHT22;2632;51.666;7.146;2023-07-29T08:15:50;21.50;99.90
5226;DHT22;2632;51.666;7.146;2023-07-29T08:18:19;21.70;99.90
5226;DHT22;2632;51.666;7.146;2023-07-29T08:20:56;21.90;99.90
5226;DHT22;2632;51.666;7.146;2023-07-29T08:23:35;21.70;99.90
5226;DHT22;2632;51.666;7.146;2023-07-29T08:26:04;21.80;99.90
5226;DHT22;2632;51.666;7.146;2023-07-29T08:28:37;22.00;99.90
5226;DHT22;2632;51.666;7.146;2023-07-29T08:31:04;22.10;99.90
5226;DHT22;2632;51.666;7.146;2023-07-29T08:33:32;22.00;99.90
5226;DHT22;2632;51.666;7.146;2023-07-29T08:36:00;22.00;99.90
5226;DHT22;2632;51.666;7.146;2023-07-29T08:38:27;21.90;99.90
5226;DHT22;2632;51.666;7.146;2023-07-29T08:41:31;22.20;99.90
5226;DHT22;2632;51.666;7.146;2023-07-29T08:44:24;22.00;99.40
5226;DHT22;2632;51.666;7.146;2023-07-29T08:46:53;22.10;99.60
5226;DHT22;2632;51.666;7.146;2023-07-29T08:49:21;22.50;99.60
5226;DHT22;2632;51.666;7.146;2023-07-29T08:51:50;22.90;99.90
5226;DHT22;2632;51.666;7.146;2023-07-29T08:54:19;23.20;99.10
5226;DHT22;2632;51.666;7.146;2023-07-29T08:56:46;22.90;98.60
5226;DHT22;2632;51.666;7.146;2023-07-29T08:59:13;22.40;99.00
5226;DHT22;2632;51.666;7.146;2023-07-29T09:01:41;22.60;99.50
5226;DHT22;2632;51.666;7.146;2023-07-29T09:04:08;22.90;98.50
5226;DHT22;2632;51.666;7.146;2023-07-29T09:06:35;23.20;97.50
5226;DHT22;2632;51.666;7.146;2023-07-29T09:09:05;23.40;97.80
5226;DHT22;2632;51.666;7.146;2023-07-29T09:11:34;23.50;97.80
5226;DHT22;2632;51.666;7.146;2023-07-29T09:14:00;23.40;96.20
5226;DHT22;2632;51.666;7.146;2023-07-29T09:16:27;23.40;97.40
5226;DHT22;2632;51.666;7.146;2023-07-29T09:18:54;23.90;97.70
5226;DHT22;2632;51.666;7.146;2023-07-29T09:21:25;24.40;96.10
5226;DHT22;2632;51.666;7.146;2023-07-29T09:23:53;23.90;95.80
5226;DHT22;2632;51.666;7.146;2023-07-29T09:26:27;23.60;97.10
5226;DHT22;2632;51.666;7.146;2023-07-29T09:28:57;23.40;96.90
5226;DHT22;2632;51.666;7.146;2023-07-29T09:31:26;23.20;96.70
5226;DHT22;2632;51.666;7.146;2023-07-29T09:34:04;23.10;97.40
5226;DHT22;2632;51.666;7.146;2023-07-29T09:36:33;23.10;97.90
5226;DHT22;2632;51.666;7.146;2023-07-29T09:39:02;23.00;97.00
5226;DHT22;2632;51.666;7.146;2023-07-29T09:41:30;22.90;98.20
5226;DHT22;2632;51.666;7.146;2023-07-29T09:43:59;22.90;98.10
5226;DHT22;2632;51.666;7.146;2023-07-29T09:46:35;23.20;98.50
5226;DHT22;2632;51.666;7.146;2023-07-29T09:49:07;23.20;98.20
5226;DHT22;2632;51.666;7.146;2023-07-29T09:51:38;23.00;97.40
5226;DHT22;2632;51.666;7.146;2023-07-29T09:54:06;23.00;97.80
5226;DHT22;2632;51.666;7.146;2023-07-29T09:56:33;23.20;97.30
5226;DHT22;2632;51.666;7.146;2023-07-29T09:59:01;23.10;97.50
5226;DHT22;2632;51.666;7.146;2023-07-29T10:01:31;22.70;97.80
5226;DHT22;2632;51.666;7.146;2023-07-29T10:03:59;22.70;98.80
5226;DHT22;2632;51.666;7.146;2023-07-29T10:06:29;22.60;98.70
5226;DHT22;2632;51.666;7.146;2023-07-29T10:08:56;22.60;98.80
5226;DHT22;2632;51.666;7.146;2023-07-29T10:11:24;22.60;98.70
5226;DHT22;2632;51.666;7.146;2023-07-29T10:13:51;22.70;98.60
5226;DHT22;2632;51.666;7.146;2023-07-29T10:16:35;22.90;98.20
5226;DHT22;2632;51.666;7.146;2023-07-29T10:19:04;23.20;98.60
5226;DHT22;2632;51.666;7.146;2023-07-29T10:21:31;23.50;98.40
5226;DHT22;2632;51.666;7.146;2023-07-29T10:24:01;23.40;98.00
5226;DHT22;2632;51.666;7.146;2023-07-29T10:26:31;23.60;98.90
5226;DHT22;2632;51.666;7.146;2023-07-29T10:29:00;24.00;97.50
5226;DHT22;2632;51.666;7.146;2023-07-29T10:31:32;23.40;97.30
5226;DHT22;2632;51.666;7.146;2023-07-29T10:34:00;23.40;98.60
5226;DHT22;2632;51.666;7.146;2023-07-29T10:36:28;23.40;98.10
5226;DHT22;2632;51.666;7.146;2023-07-29T10:38:55;23.30;97.60
5226;DHT22;2632;51.666;7.146;2023-07-29T10:41:22;23.50;98.30
5226;DHT22;2632;51.666;7.146;2023-07-29T10:43:49;23.60;97.60
5226;DHT22;2632;51.666;7.146;2023-07-29T10:46:20;23.90;96.60
5226;DHT22;2632;51.666;7.146;2023-07-29T10:51:24;24.30;96.90
5226;DHT22;2632;51.666;7.146;2023-07-29T10:53:56;24.30;96.90
5226;DHT22;2632;51.666;7.146;2023-07-29T10:56:34;24.20;96.70
5226;DHT22;2632;51.666;7.146;2023-07-29T11:01:42;24.90;96.60
5226;DHT22;2632;51.666;7.146;2023-07-29T11:12:39;24.60;94.90
5226;DHT22;2632;51.666;7.146;2023-07-29T11:17:39;24.00;95.70
5226;DHT22;2632;51.666;7.146;2023-07-29T11:20:06;24.30;95.90
5226;DHT22;2632;51.666;7.146;2023-07-29T11:22:37;24.50;95.80
5226;DHT22;2632;51.666;7.146;2023-07-29T11:25:04;24.80;96.00
5226;DHT22;2632;51.666;7.146;2023-07-29T11:27:34;24.40;94.80
5226;DHT22;2632;51.666;7.146;2023-07-29T11:30:02;23.90;95.30
5226;DHT22;2632;51.666;7.146;2023-07-29T11:32:32;23.60;95.90
5226;DHT22;2632;51.666;7.146;2023-07-29T11:35:10;23.60;96.60
5226;DHT22;2632;51.666;7.146;2023-07-29T11:37:38;23.60;95.40
5226;DHT22;2632;51.666;7.146;2023-07-29T11:40:06;23.60;96.20
5226;DHT22;2632;51.666;7.146;2023-07-29T11:42:34;24.00;96.10
5226;DHT22;2632;51.666;7.146;2023-07-29T11:45:02;24.90;94.90
5226;DHT22;2632;51.666;7.146;2023-07-29T11:47:30;25.30;95.00
5226;DHT22;2632;51.666;7.146;2023-07-29T11:50:00;25.10;94.70
5226;DHT22;2632;51.666;7.146;2023-07-29T11:52:28;24.70;94.60
5226;DHT22;2632;51.666;7.146;2023-07-29T11:54:55;25.10;93.50
5226;DHT22;2632;51.666;7.146;2023-07-29T11:57:23;25.30;94.20
5226;DHT22;2632;51.666;7.146;2023-07-29T11:59:50;25.60;93.50
5226;DHT22;2632;51.666;7.146;2023-07-29T12:02:18;25.30;93.00
5226;DHT22;2632;51.666;7.146;2023-07-29T12:04:46;24.70;93.50
5226;DHT22;2632;51.666;7.146;2023-07-29T12:07:16;24.30;94.70
5226;DHT22;2632;51.666;7.146;2023-07-29T12:09:43;24.00;94.90
5226;DHT22;2632;51.666;7.146;2023-07-29T12:12:10;23.80;95.10
5226;DHT22;2632;51.666;7.146;2023-07-29T12:14:36;23.70;96.00
5226;DHT22;2632;51.666;7.146;2023-07-29T12:17:05;23.70;95.90
5226;DHT22;2632;51.666;7.146;2023-07-29T12:19:36;23.90;96.10
5226;DHT22;2632;51.666;7.146;2023-07-29T12:22:04;24.10;95.20
5226;DHT22;2632;51.666;7.146;2023-07-29T12:24:33;24.60;95.10
5226;DHT22;2632;51.666;7.146;2023-07-29T12:27:01;24.80;94.30
5226;DHT22;2632;51.666;7.146;2023-07-29T12:29:28;24.50;94.40
5226;DHT22;2632;51.666;7.146;2023-07-29T12:31:59;24.30;95.50
5226;DHT22;2632;51.666;7.146;2023-07-29T12:34:27;24.10;95.70
5226;DHT22;2632;51.666;7.146;2023-07-29T12:36:56;23.80;94.80
5226;DHT22;2632;51.666;7.146;2023-07-29T12:39:26;23.60;95.90
5226;DHT22;2632;51.666;7.146;2023-07-29T12:41:55;23.60;96.80
5226;DHT22;2632;51.666;7.146;2023-07-29T12:44:29;23.80;95.70
5226;DHT22;2632;51.666;7.146;2023-07-29T12:46:56;24.50;95.30
5226;DHT22;2632;51.666;7.146;2023-07-29T12:49:22;24.90;94.90
5226;DHT22;2632;51.666;7.146;2023-07-29T12:51:49;25.00;93.60
5226;DHT22;2632;51.666;7.146;2023-07-29T12:54:16;25.20;93.20
5226;DHT22;2632;51.666;7.146;2023-07-29T12:56:42;25.00;93.00
5226;DHT22;2632;51.666;7.146;2023-07-29T12:59:09;25.10;93.30
5226;DHT22;2632;51.666;7.146;2023-07-29T13:01:36;25.00;94.40
5226;DHT22;2632;51.666;7.146;2023-07-29T13:04:02;25.80;92.70
5226;DHT22;2632;51.666;7.146;2023-07-29T13:06:29;25.80;91.90
5226;DHT22;2632;51.666;7.146;2023-07-29T13:08:58;25.80;90.40
5226;DHT22;2632;51.666;7.146;2023-07-29T13:11:25;25.60;92.30
5226;DHT22;2632;51.666;7.146;2023-07-29T13:13:52;25.30;91.60
5226;DHT22;2632;51.666;7.146;2023-07-29T13:16:19;25.20;91.70
5226;DHT22;2632;51.666;7.146;2023-07-29T13:18:46;25.20;91.90
5226;DHT22;2632;51.666;7.146;2023-07-29T13:21:12;25.30;92.00
5226;DHT22;2632;51.666;7.146;2023-07-29T13:23:39;25.00;91.50
5226;DHT22;2632;51.666;7.146;2023-07-29T13:26:06;24.60;91.70
5226;DHT22;2632;51.666;7.146;2023-07-29T13:28:32;24.30;92.80
5226;DHT22;2632;51.666;7.146;2023-07-29T13:30:59;24.30;92.50
5226;DHT22;2632;51.666;7.146;2023-07-29T13:33:26;24.10;93.30
5226;DHT22;2632;51.666;7.146;2023-07-29T13:35:53;24.10;93.90
5226;DHT22;2632;51.666;7.146;2023-07-29T13:38:31;23.90;92.90
5226;DHT22;2632;51.666;7.146;2023-07-29T13:40:58;23.60;93.50
5226;DHT22;2632;51.666;7.146;2023-07-29T13:43:25;23.60;94.90
5226;DHT22;2632;51.666;7.146;2023-07-29T13:45:52;23.60;94.50
5226;DHT22;2632;51.666;7.146;2023-07-29T13:48:19;23.40;94.40
5226;DHT22;2632;51.666;7.146;2023-07-29T13:50:46;23.30;95.10
5226;DHT22;2632;51.666;7.146;2023-07-29T13:53:13;23.30;95.20
5226;DHT22;2632;51.666;7.146;2023-07-29T13:55:42;23.20;95.40
5226;DHT22;2632;51.666;7.146;2023-07-29T13:58:09;23.10;95.80
5226;DHT22;2632;51.666;7.146;2023-07-29T14:00:36;22.90;96.60
5226;DHT22;2632;51.666;7.146;2023-07-29T14:03:03;22.70;99.70
5226;DHT22;2632;51.666;7.146;2023-07-29T14:05:29;22.40;99.90
5226;DHT22;2632;51.666;7.146;2023-07-29T14:07:56;22.10;99.90
5226;DHT22;2632;51.666;7.146;2023-07-29T14:10:23;21.50;99.90
5226;DHT22;2632;51.666;7.146;2023-07-29T14:12:50;21.00;99.90
5226;DHT22;2632;51.666;7.146;2023-07-29T14:15:17;20.90;99.90
5226;DHT22;2632;51.666;7.146;2023-07-29T14:17:43;20.70;99.90
5226;DHT22;2632;51.666;7.146;2023-07-29T14:20:10;20.60;99.90
5226;DHT22;2632;51.666;7.146;2023-07-29T14:22:37;20.50;99.90
5226;DHT22;2632;51.666;7.146;2023-07-29T14:25:04;20.30;99.90
5226;DHT22;2632;51.666;7.146;2023-07-29T14:27:31;20.20;99.90
5226;DHT22;2632;51.666;7.146;2023-07-29T14:29:57;20.20;99.90
5226;DHT22;2632;51.666;7.146;2023-07-29T14:32:24;19.90;99.90
5226;DHT22;2632;51.666;7.146;2023-07-29T14:34:51;20.00;99.90
5226;DHT22;2632;51.666;7.146;2023-07-29T14:37:18;20.00;99.90
5226;DHT22;2632;51.666;7.146;2023-07-29T14:39:44;20.00;99.90
5226;DHT22;2632;51.666;7.146;2023-07-29T14:42:11;20.00;99.90
5226;DHT22;2632;51.666;7.146;2023-07-29T14:44:38;19.90;99.90
5226;DHT22;2632;51.666;7.146;2023-07-29T14:47:05;19.80;99.90
5226;DHT22;2632;51.666;7.146;2023-07-29T14:49:31;19.70;99.90
5226;DHT22;2632;51.666;7.146;2023-07-29T14:51:58;19.70;99.90
5226;DHT22;2632;51.666;7.146;2023-07-29T14:54:25;19.70;99.90
5226;DHT22;2632;51.666;7.146;2023-07-29T14:56:51;19.60;99.90
5226;DHT22;2632;51.666;7.146;2023-07-29T14:59:18;19.50;99.90
5226;DHT22;2632;51.666;7.146;2023-07-29T15:01:45;20.20;99.90
5226;DHT22;2632;51.666;7.146;2023-07-29T15:04:11;20.90;99.90
5226;DHT22;2632;51.666;7.146;2023-07-29T15:06:39;20.90;99.90
5226;DHT22;2632;51.666;7.146;2023-07-29T15:09:06;21.20;99.90
5226;DHT22;2632;51.666;7.146;2023-07-29T15:11:33;21.70;99.90
5226;DHT22;2632;51.666;7.146;2023-07-29T15:14:00;21.90;99.90
5226;DHT22;2632;51.666;7.146;2023-07-29T15:16:27;22.00;99.90
5226;DHT22;2632;51.666;7.146;2023-07-29T15:18:54;21.90;99.90
5226;DHT22;2632;51.666;7.146;2023-07-29T15:21:21;22.00;99.90
5226;DHT22;2632;51.666;7.146;2023-07-29T15:23:47;22.00;99.90
5226;DHT22;2632;51.666;7.146;2023-07-29T15:26:14;22.00;99.90
5226;DHT22;2632;51.666;7.146;2023-07-29T15:28:41;22.20;99.90
5226;DHT22;2632;51.666;7.146;2023-07-29T15:31:07;22.40;99.90
5226;DHT22;2632;51.666;7.146;2023-07-29T15:33:34;22.40;99.90
5226;DHT22;2632;51.666;7.146;2023-07-29T15:36:01;22.50;99.90
5226;DHT22;2632;51.666;7.146;2023-07-29T15:38:28;22.60;99.90
5226;DHT22;2632;51.666;7.146;2023-07-29T15:40:55;22.50;99.90
5226;DHT22;2632;51.666;7.146;2023-07-29T15:43:22;22.50;99.90
5226;DHT22;2632;51.666;7.146;2023-07-29T15:45:49;22.60;99.90
5226;DHT22;2632;51.666;7.146;2023-07-29T15:48:16;22.60;99.90
5226;DHT22;2632;51.666;7.146;2023-07-29T15:50:43;22.70;99.90
5226;DHT22;2632;51.666;7.146;2023-07-29T15:53:10;22.70;99.90
5226;DHT22;2632;51.666;7.146;2023-07-29T15:55:37;22.60;99.90
5226;DHT22;2632;51.666;7.146;2023-07-29T15:58:03;22.30;99.90
5226;DHT22;2632;51.666;7.146;2023-07-29T16:00:30;22.10;99.90
5226;DHT22;2632;51.666;7.146;2023-07-29T16:02:57;22.20;99.90
5226;DHT22;2632;51.666;7.146;2023-07-29T16:05:24;22.20;99.90
5226;DHT22;2632;51.666;7.146;2023-07-29T16:07:51;22.30;99.90
5226;DHT22;2632;51.666;7.146;2023-07-29T16:10:19;21.20;99.90
5226;DHT22;2632;51.666;7.146;2023-07-29T16:12:46;22.70;99.90
5226;DHT22;2632;51.666;7.146;2023-07-29T16:15:13;22.70;99.90
5226;DHT22;2632;51.666;7.146;2023-07-29T16:17:39;22.90;99.90
5226;DHT22;2632;51.666;7.146;2023-07-29T16:20:07;23.00;99.90
5226;DHT22;2632;51.666;7.146;2023-07-29T16:22:34;22.80;99.90
5226;DHT22;2632;51.666;7.146;2023-07-29T16:25:02;22.70;99.90